createdAt,value
2019-05-13T00:00:40.269Z,54.79
2019-05-13T00:01:40.269Z,54.17
2019-05-13T00:02:40.279Z,54.17
2019-05-13T00:03:40.275Z,53.76
2019-05-13T00:04:40.207Z,54.17
2019-05-13T00:05:40.220Z,55.10
2019-05-13T00:06:53.270Z,54.58
2019-05-13T00:07:43.589Z,55.10
2019-05-13T00:08:40.192Z,54.61
2019-05-13T00:09:40.165Z,53.78
2019-05-13T00:10:40.188Z,54.82
2019-05-13T00:11:40.129Z,54.90
2019-05-13T00:12:40.170Z,54.82
2019-05-13T00:13:40.134Z,54.61
2019-05-13T00:14:40.129Z,54.90
2019-05-13T00:15:40.080Z,54.79
2019-05-13T00:16:40.071Z,54.38
2019-05-13T00:17:40.186Z,55.21
2019-05-13T00:18:40.120Z,55.13
2019-05-13T00:19:40.072Z,55.10
2019-05-13T00:20:40.044Z,56.46
2019-05-13T00:21:40.026Z,55.85
2019-05-13T00:22:40.018Z,56.16
2019-05-13T00:23:40.037Z,54.92
2019-05-13T00:24:40.010Z,55.85
2019-05-13T00:25:40.025Z,55.64
2019-05-13T00:26:40.015Z,55.74
2019-05-13T00:27:39.970Z,55.54
2019-05-13T00:28:39.992Z,55.74
2019-05-13T00:29:39.969Z,55.54
2019-05-13T00:30:39.944Z,56.16
2019-05-13T00:31:39.978Z,55.95
2019-05-13T00:32:39.912Z,56.98
2019-05-13T00:33:39.908Z,56.67
2019-05-13T00:34:39.968Z,57.91
2019-05-13T00:35:39.878Z,56.77
2019-05-13T00:36:39.903Z,56.77
2019-05-13T00:37:39.915Z,57.21
2019-05-13T00:38:39.882Z,56.90
2019-05-13T00:39:39.874Z,56.88
2019-05-13T00:40:39.842Z,57.32
2019-05-13T00:41:39.851Z,56.98
2019-05-13T00:42:39.822Z,57.52
2019-05-13T00:43:39.800Z,57.83
2019-05-13T00:44:39.812Z,58.35
2019-05-13T00:45:39.836Z,57.42
2019-05-13T00:46:39.771Z,58.35
2019-05-13T00:47:39.769Z,57.42
2019-05-13T00:48:39.755Z,57.93
2019-05-13T00:49:39.762Z,58.35
2019-05-13T00:50:39.767Z,58.14
2019-05-13T00:51:39.773Z,57.93
2019-05-13T00:52:39.711Z,58.55
2019-05-13T00:53:39.701Z,58.04
2019-05-13T00:54:39.730Z,57.86
2019-05-13T00:55:39.736Z,59.30
2019-05-13T00:56:39.708Z,58.99
2019-05-13T00:57:39.643Z,58.35
2019-05-13T00:58:39.665Z,59.51
2019-05-13T00:59:39.627Z,60.13
2019-05-13T01:00:39.647Z,59.82
2019-05-13T01:01:39.612Z,59.82
2019-05-13T01:02:39.616Z,59.82
2019-05-13T01:03:39.630Z,60.85
2019-05-13T01:04:39.627Z,60.64
2019-05-13T01:05:39.584Z,60.64
2019-05-13T01:06:39.585Z,60.23
2019-05-13T01:07:39.583Z,60.75
2019-05-13T01:08:39.544Z,60.33
2019-05-13T01:09:39.559Z,60.54
2019-05-13T01:10:39.543Z,60.13
2019-05-13T01:11:39.555Z,60.64
2019-05-13T01:12:39.601Z,60.67
2019-05-13T01:13:39.507Z,60.64
2019-05-13T01:14:39.492Z,60.54
2019-05-13T01:15:39.576Z,60.85
2019-05-13T01:16:39.504Z,61.47
2019-05-13T01:17:39.485Z,60.75
2019-05-13T01:18:39.485Z,60.57
2019-05-13T01:19:39.475Z,60.57
2019-05-13T01:20:39.402Z,60.47
2019-05-13T01:21:39.449Z,61.91
2019-05-13T01:22:39.415Z,61.50
2019-05-13T01:23:39.422Z,61.91
2019-05-13T01:24:39.419Z,61.91
2019-05-13T01:25:39.451Z,61.73
2019-05-13T01:26:39.366Z,61.50
2019-05-13T01:27:39.405Z,62.22
2019-05-13T01:28:39.384Z,62.12
2019-05-13T01:29:39.356Z,62.74
2019-05-13T01:30:39.360Z,62.25
2019-05-13T01:31:39.298Z,62.74
2019-05-13T01:32:39.318Z,62.97
2019-05-13T01:33:39.285Z,62.46
2019-05-13T01:34:39.356Z,63.39
2019-05-13T01:35:39.268Z,62.87
2019-05-13T01:36:39.252Z,63.39
2019-05-13T01:37:42.712Z,62.55
2019-05-13T01:38:40.257Z,63.39
2019-05-13T01:39:39.361Z,62.55
2019-05-13T01:40:39.215Z,64.00
2019-05-13T01:41:39.246Z,62.55
2019-05-13T01:42:39.303Z,64.00
2019-05-13T01:43:39.205Z,64.11
2019-05-13T01:44:39.219Z,63.79
2019-05-13T01:45:39.470Z,63.39
2019-05-13T01:46:39.254Z,63.90
2019-05-13T01:47:39.191Z,64.52
2019-05-13T01:48:39.155Z,63.79
2019-05-13T01:49:39.661Z,63.69
2019-05-13T01:50:39.129Z,64.00
2019-05-13T01:51:39.180Z,64.11
2019-05-13T01:52:39.127Z,64.65
2019-05-13T01:53:39.996Z,64.03
2019-05-13T01:54:39.126Z,64.55
2019-05-13T01:55:39.115Z,65.58
2019-05-13T01:56:39.163Z,65.48
2019-05-13T01:57:39.225Z,64.86
2019-05-13T01:58:39.037Z,65.06
2019-05-13T01:59:39.073Z,64.96
2019-05-13T02:00:39.036Z,65.06
2019-05-13T02:01:39.030Z,65.27
2019-05-13T02:02:39.016Z,66.20
2019-05-13T02:03:39.020Z,66.13
2019-05-13T02:04:38.971Z,66.93
2019-05-13T02:05:39.002Z,66.30
2019-05-13T02:06:38.959Z,65.79
2019-05-13T02:07:38.955Z,66.20
2019-05-13T02:08:38.954Z,66.20
2019-05-13T02:09:39.015Z,66.41
2019-05-13T02:10:38.939Z,66.23
2019-05-13T02:11:38.950Z,66.30
2019-05-13T02:12:39.147Z,66.03
2019-05-13T02:13:38.887Z,66.03
2019-05-13T02:14:38.924Z,66.96
2019-05-13T02:15:38.878Z,66.75
2019-05-13T02:16:38.893Z,66.85
2019-05-13T02:17:38.880Z,66.54
2019-05-13T02:18:38.948Z,67.16
2019-05-13T02:19:39.066Z,67.68
2019-05-13T02:20:38.919Z,66.85
2019-05-13T02:21:38.815Z,67.19
2019-05-13T02:22:38.907Z,67.19
2019-05-13T02:23:38.854Z,67.09
2019-05-13T02:24:38.771Z,67.06
2019-05-13T02:25:39.501Z,67.47
2019-05-13T02:26:39.055Z,68.23
2019-05-13T02:27:38.723Z,67.71
2019-05-13T02:28:38.751Z,67.71
2019-05-13T02:29:38.761Z,68.12
2019-05-13T02:30:38.697Z,68.30
2019-05-13T02:31:46.283Z,68.12
2019-05-13T02:32:42.545Z,67.82
2019-05-13T02:33:38.684Z,68.23
2019-05-13T02:34:38.683Z,67.71
2019-05-13T02:35:38.639Z,67.85
2019-05-13T02:36:38.698Z,67.91
2019-05-13T02:37:38.670Z,68.54
2019-05-13T02:38:38.660Z,68.64
2019-05-13T02:39:38.653Z,69.26
2019-05-13T02:40:38.642Z,68.43
2019-05-13T02:41:38.587Z,68.54
2019-05-13T02:42:38.631Z,69.19
2019-05-13T02:43:41.213Z,69.19
2019-05-13T02:44:39.569Z,69.06
2019-05-13T02:45:38.553Z,69.57
2019-05-13T02:46:38.534Z,69.26
2019-05-13T02:47:38.564Z,69.06
2019-05-13T02:48:38.571Z,69.19
2019-05-13T02:49:38.508Z,69.67
2019-05-13T02:50:38.502Z,69.88
2019-05-13T02:51:38.466Z,69.50
2019-05-13T02:52:38.466Z,69.50
2019-05-13T02:53:38.508Z,69.47
2019-05-13T02:54:38.512Z,69.71
2019-05-13T02:55:38.488Z,69.37
2019-05-13T02:56:38.427Z,69.29
2019-05-13T02:57:38.441Z,69.16
2019-05-13T02:58:38.388Z,69.92
2019-05-13T02:59:38.456Z,69.81
2019-05-13T03:00:38.480Z,69.88
2019-05-13T03:01:38.417Z,69.57
2019-05-13T03:02:38.376Z,70.12
2019-05-13T03:03:38.384Z,70.12
2019-05-13T03:04:38.406Z,69.81
2019-05-13T03:05:38.323Z,70.22
2019-05-13T03:06:38.345Z,70.01
2019-05-13T03:07:38.307Z,70.22
2019-05-13T03:08:46.357Z,70.12
2019-05-13T03:09:42.066Z,70.12
2019-05-13T03:10:38.293Z,70.22
2019-05-13T03:11:38.340Z,70.22
2019-05-13T03:12:38.256Z,70.22
2019-05-13T03:13:38.258Z,70.22
2019-05-13T03:14:38.227Z,70.12
2019-05-13T03:15:38.249Z,70.95
2019-05-13T03:16:38.223Z,71.05
2019-05-13T03:17:38.215Z,70.12
2019-05-13T03:18:38.207Z,70.32
2019-05-13T03:19:38.210Z,70.22
2019-05-13T03:20:38.172Z,70.87
2019-05-13T03:21:38.189Z,70.67
2019-05-13T03:22:38.183Z,71.19
2019-05-13T03:23:38.185Z,70.57
2019-05-13T03:24:38.137Z,71.29
2019-05-13T03:25:38.148Z,70.77
2019-05-13T03:26:38.153Z,70.67
2019-05-13T03:27:38.138Z,70.15
2019-05-13T03:28:38.099Z,70.36
2019-05-13T03:29:38.133Z,70.98
2019-05-13T03:30:38.091Z,70.98
2019-05-13T03:31:38.127Z,71.19
2019-05-13T03:32:50.006Z,71.60
2019-05-13T03:33:45.395Z,71.81
2019-05-13T03:34:44.584Z,71.60
2019-05-13T03:35:44.701Z,70.47
2019-05-13T03:36:44.878Z,70.47
2019-05-13T03:37:42.093Z,71.26
2019-05-13T03:38:55.614Z,71.39
2019-05-13T03:39:39.020Z,70.87
2019-05-13T03:40:37.947Z,70.64
2019-05-13T03:41:37.948Z,70.12
2019-05-13T03:42:38.055Z,70.32
2019-05-13T03:43:37.919Z,70.32
2019-05-13T03:44:37.957Z,70.22
2019-05-13T03:45:37.927Z,70.22
2019-05-13T03:46:37.958Z,70.32
2019-05-13T03:47:37.901Z,70.53
2019-05-13T03:48:37.941Z,71.15
2019-05-13T03:49:37.872Z,70.53
2019-05-13T03:50:37.871Z,70.12
2019-05-13T03:51:37.926Z,69.81
2019-05-13T03:52:46.776Z,70.12
2019-05-13T03:53:46.693Z,70.22
2019-05-13T03:55:56.354Z,70.64
2019-05-13T03:57:06.601Z,70.01
2019-05-13T03:58:05.151Z,70.74
2019-05-13T03:59:06.576Z,70.09
2019-05-13T04:00:05.830Z,70.09
2019-05-13T04:01:05.705Z,70.19
2019-05-13T04:03:35.956Z,69.78
2019-05-13T04:04:45.132Z,69.81
2019-05-13T04:05:45.666Z,69.88
2019-05-13T04:07:47.086Z,70.40
2019-05-13T04:08:47.017Z,69.98
2019-05-13T04:09:47.057Z,69.88
2019-05-13T04:10:47.006Z,69.78
2019-05-13T04:11:46.985Z,69.78
2019-05-13T04:12:46.945Z,69.67
2019-05-13T04:13:46.928Z,69.98
2019-05-13T04:14:46.996Z,69.02
2019-05-13T04:15:46.943Z,69.23
2019-05-13T04:16:46.921Z,69.85
2019-05-13T04:17:46.963Z,69.43
2019-05-13T04:18:46.920Z,69.23
2019-05-13T04:19:46.940Z,69.95
2019-05-13T04:20:47.039Z,69.74
2019-05-13T04:21:46.933Z,69.33
2019-05-13T04:22:46.885Z,68.78
2019-05-13T04:23:46.863Z,68.37
2019-05-13T04:24:46.869Z,68.37
2019-05-13T04:25:46.881Z,68.48
2019-05-13T04:26:46.838Z,68.48
2019-05-13T04:27:46.793Z,68.78
2019-05-13T04:28:46.772Z,68.27
2019-05-13T04:29:46.800Z,68.51
2019-05-13T04:30:46.813Z,68.99
2019-05-13T04:31:46.788Z,68.37
2019-05-13T04:32:46.757Z,68.37
2019-05-13T04:33:46.757Z,68.54
2019-05-13T04:34:46.842Z,68.54
2019-05-13T04:35:46.709Z,68.65
2019-05-13T04:36:46.696Z,68.85
2019-05-13T04:37:46.692Z,68.34
2019-05-13T04:38:46.737Z,69.58
2019-05-13T04:39:51.703Z,69.17
2019-05-13T04:40:47.636Z,68.96
2019-05-13T04:41:46.681Z,68.41
2019-05-13T04:42:46.642Z,68.30
2019-05-13T04:43:46.740Z,68.30
2019-05-13T04:44:46.677Z,68.51
2019-05-13T04:45:46.616Z,68.41
2019-05-13T04:46:46.631Z,68.82
2019-05-13T04:47:46.625Z,68.41
2019-05-13T04:48:46.638Z,68.48
2019-05-13T04:49:46.562Z,68.69
2019-05-13T04:50:46.545Z,68.62
2019-05-13T04:51:46.536Z,68.79
2019-05-13T04:52:46.557Z,68.07
2019-05-13T04:53:46.608Z,67.97
2019-05-13T04:54:46.535Z,67.97
2019-05-13T04:55:46.528Z,67.97
2019-05-13T04:56:46.523Z,68.17
2019-05-13T04:57:46.643Z,68.79
2019-05-13T04:58:46.500Z,68.45
2019-05-13T04:59:48.284Z,68.04
2019-05-13T05:00:49.902Z,68.35
2019-05-13T05:01:52.874Z,68.04
2019-05-13T05:02:54.489Z,68.76
2019-05-13T05:03:47.445Z,67.63
2019-05-13T05:04:46.458Z,68.04
2019-05-13T05:05:46.402Z,68.14
2019-05-13T05:06:46.406Z,68.62
2019-05-13T05:07:46.377Z,68.21
2019-05-13T05:08:47.550Z,68.21
2019-05-13T05:10:15.508Z,68.11
2019-05-13T05:10:50.139Z,68.11
2019-05-13T05:11:47.360Z,68.39
2019-05-13T05:12:46.347Z,68.49
2019-05-13T05:13:46.340Z,68.25
2019-05-13T05:14:46.379Z,67.94
2019-05-13T05:15:46.312Z,67.63
2019-05-13T05:16:46.323Z,67.94
2019-05-13T05:17:46.302Z,67.81
2019-05-13T05:18:46.256Z,66.99
2019-05-13T05:19:47.521Z,67.50
2019-05-13T05:20:46.567Z,67.09
2019-05-13T05:21:46.268Z,67.30
2019-05-13T05:24:03.750Z,66.58
2019-05-13T05:25:03.618Z,67.19
2019-05-13T05:26:03.591Z,66.99
2019-05-13T05:27:03.603Z,67.19
2019-05-13T05:28:03.597Z,67.16
2019-05-13T05:29:03.547Z,66.85
2019-05-13T05:30:03.586Z,66.54
2019-05-13T05:31:04.397Z,67.26
2019-05-13T05:32:03.558Z,66.64
2019-05-13T05:33:03.543Z,66.85
2019-05-13T05:34:06.419Z,66.51
2019-05-13T05:35:03.736Z,67.23
2019-05-13T05:36:03.667Z,66.82
2019-05-13T05:37:03.498Z,66.89
2019-05-13T05:38:03.505Z,66.38
2019-05-13T05:39:03.563Z,66.58
2019-05-13T05:40:03.487Z,66.48
2019-05-13T05:41:03.599Z,66.58
2019-05-13T05:42:03.439Z,66.38
2019-05-13T05:43:03.444Z,66.48
2019-05-13T05:44:03.522Z,66.55
2019-05-13T05:45:03.472Z,65.53
2019-05-13T05:46:03.540Z,65.42
2019-05-13T05:47:03.441Z,65.50
2019-05-13T05:48:03.405Z,65.29
2019-05-13T05:49:03.433Z,64.57
2019-05-13T05:50:03.391Z,64.57
2019-05-13T05:51:03.347Z,63.75
2019-05-13T05:52:03.358Z,64.67
2019-05-13T05:53:03.900Z,64.47
2019-05-13T05:54:03.479Z,64.57
2019-05-13T05:55:03.912Z,64.75
2019-05-13T05:56:03.341Z,64.64
2019-05-13T05:57:03.387Z,64.64
2019-05-13T05:58:03.898Z,64.13
2019-05-13T05:59:03.308Z,64.31
2019-05-13T06:00:04.082Z,64.31
2019-05-13T06:01:03.330Z,64.31
2019-05-13T06:02:03.381Z,63.90
2019-05-13T06:03:03.505Z,63.90
2019-05-13T06:04:03.235Z,64.20
2019-05-13T06:05:03.906Z,64.20
2019-05-13T06:06:03.196Z,64.20
2019-05-13T06:07:03.536Z,63.87
2019-05-13T06:08:03.168Z,62.81
2019-05-13T06:09:03.284Z,62.61
2019-05-13T06:10:03.192Z,62.81
2019-05-13T06:11:03.155Z,62.92
2019-05-13T06:12:03.200Z,62.71
2019-05-13T06:13:03.268Z,62.71
2019-05-13T06:14:03.104Z,62.19
2019-05-13T06:15:03.112Z,62.37
2019-05-13T06:16:03.078Z,62.17
2019-05-13T06:17:03.952Z,62.17
2019-05-13T06:18:03.062Z,62.48
2019-05-13T06:19:03.058Z,62.37
2019-05-13T06:20:04.228Z,62.17
2019-05-13T06:21:03.054Z,61.86
2019-05-13T06:22:04.049Z,61.43
2019-05-13T06:23:02.997Z,61.63
2019-05-13T06:24:03.022Z,61.63
2019-05-13T06:25:03.464Z,61.19
2019-05-13T06:26:02.980Z,60.58
2019-05-13T06:27:03.038Z,60.17
2019-05-13T06:28:02.949Z,60.58
2019-05-13T06:29:03.147Z,60.58
2019-05-13T06:30:02.941Z,60.88
2019-05-13T06:31:02.927Z,59.96
2019-05-13T06:32:17.789Z,59.83
2019-05-13T06:33:03.890Z,60.06
2019-05-13T06:34:02.947Z,60.14
2019-05-13T06:35:02.885Z,60.17
2019-05-13T06:36:02.865Z,60.47
2019-05-13T06:37:02.958Z,59.94
2019-05-13T06:38:02.823Z,60.24
2019-05-13T06:39:02.877Z,60.03
2019-05-13T06:40:02.809Z,60.35
2019-05-13T06:41:07.240Z,59.91
2019-05-13T06:42:03.863Z,59.70
2019-05-13T06:43:02.809Z,59.80
2019-05-13T06:44:02.904Z,59.50
2019-05-13T06:45:02.756Z,57.73
2019-05-13T06:46:02.753Z,58.07
2019-05-13T06:47:02.997Z,58.17
2019-05-13T06:48:02.963Z,57.93
2019-05-13T06:49:03.047Z,58.34
2019-05-13T06:50:03.386Z,57.84
2019-05-13T06:51:02.782Z,57.93
2019-05-13T06:52:02.753Z,57.50
2019-05-13T06:53:02.742Z,57.81
2019-05-13T06:54:02.690Z,58.42
2019-05-13T06:55:02.992Z,57.17
2019-05-13T06:56:02.696Z,57.78
2019-05-13T06:57:05.290Z,57.68
2019-05-13T06:58:02.613Z,57.14
2019-05-13T06:59:02.625Z,56.94
2019-05-13T07:00:02.755Z,56.71
2019-05-13T07:01:04.426Z,56.12
2019-05-13T07:02:02.581Z,56.30
2019-05-13T07:03:02.636Z,56.84
2019-05-13T07:04:02.741Z,56.53
2019-05-13T07:05:02.614Z,57.75
2019-05-13T07:06:02.535Z,56.73
2019-05-13T07:07:12.402Z,56.43
2019-05-13T07:08:03.582Z,56.60
2019-05-13T07:09:03.414Z,56.60
2019-05-13T07:10:02.791Z,56.17
2019-05-13T07:11:17.281Z,54.85
2019-05-13T07:12:03.750Z,55.26
2019-05-13T07:13:02.549Z,55.74
2019-05-13T07:14:03.426Z,54.13
2019-05-13T07:15:03.415Z,55.43
2019-05-13T07:16:02.535Z,54.41
2019-05-13T07:17:02.449Z,54.61
2019-05-13T07:18:02.529Z,54.51
2019-05-13T07:19:02.747Z,54.41
2019-05-13T07:20:02.567Z,54.72
2019-05-13T07:21:03.457Z,53.57
2019-05-13T07:22:03.153Z,53.98
2019-05-13T07:23:02.915Z,54.00
2019-05-13T07:24:02.563Z,53.78
2019-05-13T07:25:02.721Z,52.88
2019-05-13T07:26:02.424Z,54.11
2019-05-13T07:27:02.441Z,54.11
2019-05-13T07:28:02.409Z,54.72
2019-05-13T07:29:03.479Z,54.49
2019-05-13T07:30:02.918Z,53.78
2019-05-13T07:31:02.416Z,53.85
2019-05-13T07:32:02.406Z,53.88
2019-05-13T07:33:02.253Z,53.04
2019-05-13T07:34:02.486Z,53.65
2019-05-13T07:35:04.042Z,54.05
2019-05-13T07:36:03.261Z,53.04
2019-05-13T07:37:02.370Z,52.81
2019-05-13T07:38:02.313Z,52.78
2019-05-13T07:39:02.187Z,52.48
2019-05-13T07:40:02.716Z,51.28
2019-05-13T07:41:02.251Z,52.68
2019-05-13T07:42:05.328Z,51.26
2019-05-13T07:43:02.220Z,51.36
2019-05-13T07:44:02.654Z,52.10
2019-05-13T07:45:02.149Z,52.71
2019-05-13T07:46:02.385Z,52.98
2019-05-13T07:47:03.705Z,52.37
2019-05-13T07:48:02.193Z,51.16
2019-05-13T07:49:02.333Z,50.93
2019-05-13T07:50:02.686Z,50.32
2019-05-13T07:51:04.449Z,50.22
2019-05-13T07:52:02.089Z,50.09
2019-05-13T07:53:02.369Z,50.09
2019-05-13T07:54:02.444Z,49.58
2019-05-13T07:55:02.051Z,49.79
2019-05-13T07:56:02.223Z,48.77
2019-05-13T07:57:02.383Z,50.48
2019-05-13T07:58:02.225Z,49.48
2019-05-13T07:59:02.139Z,49.05
2019-05-13T08:00:02.279Z,49.08
2019-05-13T08:01:02.493Z,48.77
2019-05-13T08:02:02.673Z,48.97
2019-05-13T08:03:02.041Z,48.36
2019-05-13T08:04:02.299Z,48.85
2019-05-13T08:05:02.512Z,48.65
2019-05-13T08:06:02.209Z,47.30
2019-05-13T08:07:02.427Z,47.30
2019-05-13T08:08:02.334Z,47.20
2019-05-13T08:09:02.072Z,47.02
2019-05-13T08:10:03.511Z,47.43
2019-05-13T08:11:02.137Z,46.82
2019-05-13T08:12:09.620Z,47.30
2019-05-13T08:13:02.815Z,46.41
2019-05-13T08:14:02.446Z,47.61
2019-05-13T08:15:03.171Z,46.82
2019-05-13T08:16:02.513Z,46.59
2019-05-13T08:17:02.653Z,46.27
2019-05-13T08:18:02.244Z,46.27
2019-05-13T08:19:02.003Z,46.37
2019-05-13T08:20:02.923Z,46.19
2019-05-13T08:21:02.198Z,46.39
2019-05-13T08:22:02.388Z,47.00
2019-05-13T08:23:02.634Z,46.88
2019-05-13T08:24:02.839Z,45.76
2019-05-13T08:25:03.173Z,44.74
2019-05-13T08:26:02.405Z,44.93
2019-05-13T08:27:02.611Z,43.61
2019-05-13T08:28:02.211Z,42.19
2019-05-13T08:29:05.576Z,40.36
2019-05-13T08:30:02.441Z,40.77
2019-05-13T08:31:02.501Z,40.36
2019-05-13T08:32:02.845Z,38.96
2019-05-13T08:33:02.456Z,40.20
2019-05-13T08:34:02.510Z,40.40
2019-05-13T08:35:08.605Z,39.98
2019-05-13T08:36:02.597Z,39.55
2019-05-13T08:37:02.794Z,38.64
2019-05-13T08:38:01.637Z,37.32
2019-05-13T08:39:02.674Z,37.54
2019-05-13T08:40:01.897Z,38.13
2019-05-13T08:41:02.055Z,37.62
2019-05-13T08:42:14.722Z,37.81
2019-05-13T08:43:02.589Z,37.51
2019-05-13T08:44:01.850Z,36.69
2019-05-13T08:45:02.097Z,36.07
2019-05-13T08:46:02.097Z,36.46
2019-05-13T08:47:03.069Z,35.95
2019-05-13T08:48:02.125Z,35.95
2019-05-13T08:49:03.763Z,36.44
2019-05-13T08:50:04.205Z,34.22
2019-05-13T08:51:03.193Z,36.14
2019-05-13T08:52:01.863Z,36.65
2019-05-13T08:53:01.906Z,35.82
2019-05-13T08:54:02.423Z,37.34
2019-05-13T08:55:02.035Z,37.94
2019-05-13T08:56:01.778Z,38.53
2019-05-13T08:57:02.992Z,38.71
2019-05-13T08:58:01.898Z,35.21
2019-05-13T08:59:01.450Z,37.23
2019-05-13T09:00:04.848Z,38.04
2019-05-13T09:01:02.145Z,38.02
2019-05-13T09:02:02.872Z,37.01
2019-05-13T09:03:02.967Z,37.30
2019-05-13T09:05:02.525Z,37.38
2019-05-13T09:06:02.778Z,35.48
2019-05-13T09:07:02.114Z,36.69
2019-05-13T09:08:01.435Z,36.69
2019-05-13T09:09:02.437Z,35.86
2019-05-13T09:10:01.797Z,35.78
2019-05-13T09:11:01.687Z,36.08
2019-05-13T09:12:02.444Z,35.38
2019-05-13T09:13:01.999Z,35.48
2019-05-13T09:14:02.310Z,35.58
2019-05-13T09:15:03.310Z,36.22
2019-05-13T09:16:02.359Z,37.35
2019-05-13T09:17:02.063Z,36.04
2019-05-13T09:18:02.305Z,34.52
2019-05-13T09:19:03.862Z,33.72
2019-05-13T09:20:02.852Z,34.47
2019-05-13T09:21:02.568Z,34.77
2019-05-13T09:22:03.060Z,34.67
2019-05-13T09:23:02.081Z,33.74
2019-05-13T09:24:02.147Z,33.64
2019-05-13T09:25:02.100Z,32.41
2019-05-13T09:26:02.617Z,31.58
2019-05-13T09:27:01.946Z,32.07
2019-05-13T09:28:02.613Z,32.28
2019-05-13T09:29:01.572Z,33.59
2019-05-13T09:30:02.704Z,33.58
2019-05-13T09:31:02.037Z,34.17
2019-05-13T09:32:03.807Z,33.15
2019-05-13T09:33:02.003Z,34.48
2019-05-13T09:34:01.578Z,34.18
2019-05-13T09:35:03.033Z,32.88
2019-05-13T09:36:02.129Z,31.78
2019-05-13T09:37:02.822Z,31.99
2019-05-13T09:38:03.172Z,32.10
2019-05-13T09:39:03.457Z,33.44
2019-05-13T09:40:02.445Z,33.44
2019-05-13T09:41:01.893Z,34.56
2019-05-13T09:42:02.724Z,34.99
2019-05-13T09:43:02.529Z,34.38
2019-05-13T09:44:02.088Z,33.89
2019-05-13T09:45:02.260Z,35.00
2019-05-13T09:46:01.648Z,35.51
2019-05-13T09:47:02.497Z,35.73
2019-05-13T09:48:01.601Z,36.04
2019-05-13T09:49:15.071Z,35.53
2019-05-13T09:50:04.426Z,36.44
2019-05-13T09:51:02.372Z,37.68
2019-05-13T09:52:01.717Z,37.70
2019-05-13T09:53:02.739Z,37.78
2019-05-13T09:54:01.551Z,37.90
2019-05-13T09:55:03.143Z,38.18
2019-05-13T09:56:02.343Z,38.09
2019-05-13T09:57:01.716Z,38.20
2019-05-13T09:58:02.419Z,38.71
2019-05-13T09:59:01.975Z,39.04
2019-05-13T10:00:01.702Z,37.98
2019-05-13T10:01:00.657Z,38.51
2019-05-13T10:02:02.860Z,38.81
2019-05-13T10:03:02.158Z,39.44
2019-05-13T10:04:02.981Z,38.92
2019-05-13T10:05:02.305Z,39.32
2019-05-13T10:06:02.463Z,40.03
2019-05-13T10:07:02.151Z,39.04
2019-05-13T10:08:02.461Z,39.34
2019-05-13T10:09:02.219Z,39.85
2019-05-13T10:10:01.721Z,38.93
2019-05-13T10:11:01.823Z,39.00
2019-05-13T10:12:03.051Z,38.17
2019-05-13T10:13:09.213Z,37.66
2019-05-13T10:14:02.194Z,37.15
2019-05-13T10:15:01.926Z,37.13
2019-05-13T10:16:00.521Z,37.85
2019-05-13T10:17:05.394Z,37.73
2019-05-13T10:18:01.887Z,36.49
2019-05-13T10:19:01.867Z,35.88
2019-05-13T10:20:00.985Z,35.48
2019-05-13T10:21:00.476Z,33.44
2019-05-13T10:22:00.449Z,33.74
2019-05-13T10:23:01.674Z,32.31
2019-05-13T10:24:00.429Z,30.67
2019-05-13T10:25:02.503Z,30.47
2019-05-13T10:26:02.939Z,30.86
2019-05-13T10:27:02.414Z,30.57
2019-05-13T10:28:02.007Z,31.80
2019-05-13T10:29:00.356Z,32.02
2019-05-13T10:30:00.355Z,33.65
2019-05-13T10:31:01.657Z,32.86
2019-05-13T10:32:02.648Z,33.57
2019-05-13T10:33:02.737Z,33.37
2019-05-13T10:34:02.333Z,33.79
2019-05-13T10:35:02.895Z,34.31
2019-05-13T10:36:03.332Z,33.70
2019-05-13T10:37:02.086Z,33.51
2019-05-13T10:38:03.724Z,33.72
2019-05-13T10:39:01.498Z,33.92
2019-05-13T10:40:02.378Z,33.82
2019-05-13T10:41:02.795Z,32.50
2019-05-13T10:42:03.572Z,33.62
2019-05-13T10:43:01.873Z,32.90
2019-05-13T10:44:02.979Z,32.99
2019-05-13T10:45:02.502Z,32.06
2019-05-13T10:46:02.629Z,32.47
2019-05-13T10:47:02.538Z,31.64
2019-05-13T10:48:02.744Z,31.52
2019-05-13T10:49:01.885Z,31.63
2019-05-13T10:50:02.831Z,31.51
2019-05-13T10:51:02.322Z,31.22
2019-05-13T10:52:02.821Z,32.22
2019-05-13T10:53:02.663Z,30.70
2019-05-13T10:54:01.107Z,29.28
2019-05-13T10:55:01.994Z,28.17
2019-05-13T10:56:03.036Z,27.46
2019-05-13T10:57:03.563Z,27.66
2019-05-13T10:58:02.387Z,27.72
2019-05-13T10:59:02.364Z,27.32
2019-05-13T11:00:03.161Z,26.62
2019-05-13T11:01:02.743Z,26.13
2019-05-13T11:02:02.250Z,27.36
2019-05-13T11:03:00.972Z,28.69
2019-05-13T11:04:02.560Z,28.90
2019-05-13T11:05:02.938Z,29.41
2019-05-13T11:06:00.476Z,30.83
2019-05-13T11:07:02.395Z,30.52
2019-05-13T11:08:02.026Z,30.73
2019-05-13T11:09:02.067Z,30.63
2019-05-13T11:10:00.097Z,31.15
2019-05-13T11:11:02.080Z,31.66
2019-05-13T11:12:02.063Z,32.17
2019-05-13T11:13:11.866Z,32.57
2019-05-13T11:14:10.658Z,33.29
2019-05-13T11:15:02.510Z,33.60
2019-05-13T11:16:02.303Z,33.70
2019-05-13T11:17:01.589Z,34.22
2019-05-13T11:18:03.050Z,34.83
2019-05-13T11:19:02.585Z,34.75
2019-05-13T11:20:03.123Z,35.44
2019-05-13T11:21:02.021Z,34.44
2019-05-13T11:22:12.099Z,35.17
2019-05-13T11:23:01.909Z,35.48
2019-05-13T11:24:02.753Z,36.27
2019-05-13T11:25:01.715Z,35.05
2019-05-13T11:25:59.741Z,35.94
2019-05-13T11:27:02.540Z,35.31
2019-05-13T11:28:01.657Z,34.78
2019-05-13T11:29:02.627Z,34.45
2019-05-13T11:30:04.757Z,34.53
2019-05-13T11:31:02.931Z,32.91
2019-05-13T11:32:02.019Z,31.71
2019-05-13T11:33:01.756Z,31.21
2019-05-13T11:34:01.850Z,32.02
2019-05-13T11:35:01.774Z,31.63
2019-05-13T11:35:59.657Z,31.83
2019-05-13T11:37:03.293Z,31.92
2019-05-13T11:38:01.628Z,31.58
2019-05-13T11:38:59.589Z,31.46
2019-05-13T11:40:00.007Z,29.56
2019-05-13T11:41:02.179Z,30.08
2019-05-13T11:42:02.053Z,29.46
2019-05-13T11:43:01.726Z,30.27
2019-05-13T11:44:12.575Z,29.15
2019-05-13T11:45:00.586Z,28.85
2019-05-13T11:46:01.969Z,27.32
2019-05-13T11:47:02.353Z,27.11
2019-05-13T11:48:02.282Z,28.33
2019-05-13T11:49:02.221Z,28.82
2019-05-13T11:50:01.636Z,27.40
2019-05-13T11:50:59.498Z,26.10
2019-05-13T11:51:59.463Z,26.61
2019-05-13T11:53:03.255Z,26.31
2019-05-13T11:54:01.806Z,27.01
2019-05-13T11:55:01.794Z,27.51
2019-05-13T11:56:03.256Z,26.18
2019-05-13T11:57:05.535Z,26.79
2019-05-13T11:58:02.999Z,26.65
2019-05-13T11:58:59.379Z,25.81
2019-05-13T12:00:02.289Z,25.25
2019-05-13T12:01:01.781Z,23.50
2019-05-13T12:02:03.967Z,22.89
2019-05-13T12:03:03.601Z,21.79
2019-05-13T12:04:02.440Z,21.15
2019-05-13T12:05:03.320Z,19.74
2019-05-13T12:06:02.042Z,19.73
2019-05-13T12:07:08.053Z,19.71
2019-05-13T12:08:08.789Z,19.51
2019-05-13T12:09:12.735Z,20.79
2019-05-13T12:10:08.439Z,19.20
2019-05-13T12:15:49.768Z,20.67
2019-05-13T12:16:55.672Z,20.06
2019-05-13T12:17:46.690Z,21.79
2019-05-13T12:18:46.660Z,21.70
2019-05-13T12:19:46.838Z,22.02
2019-05-13T12:20:47.994Z,23.68
2019-05-13T12:21:47.052Z,24.72
2019-05-13T12:22:46.679Z,25.15
2019-05-13T12:25:01.885Z,25.59
2019-05-13T12:25:58.791Z,26.70
2019-05-13T12:26:58.505Z,26.82
2019-05-13T12:27:57.268Z,27.44
2019-05-13T12:28:58.027Z,27.65
2019-05-13T12:29:57.405Z,28.86
2019-05-13T12:30:57.299Z,27.71
2019-05-13T12:31:57.192Z,25.94
2019-05-13T12:32:57.260Z,26.76
2019-05-13T12:33:57.411Z,25.89
2019-05-13T12:34:57.283Z,25.24
2019-05-13T12:35:58.172Z,24.00
2019-05-13T12:36:58.054Z,22.95
2019-05-13T12:38:00.010Z,22.86
2019-05-13T12:38:57.145Z,23.24
2019-05-13T12:39:57.258Z,22.39
2019-05-13T12:40:57.118Z,20.68
2019-05-13T12:41:57.279Z,20.95
2019-05-13T12:42:58.398Z,20.76
2019-05-13T12:43:57.121Z,20.18
2019-05-13T12:45:08.142Z,22.08
2019-05-13T12:45:58.049Z,20.14
2019-05-13T12:46:57.030Z,20.02
2019-05-13T12:48:02.941Z,19.31
2019-05-13T12:48:58.036Z,17.46
2019-05-13T12:49:57.077Z,19.92
2019-05-13T12:50:57.089Z,20.75
2019-05-13T12:52:00.739Z,22.29
2019-05-13T12:52:58.007Z,23.03
2019-05-13T12:53:57.118Z,25.18
2019-05-13T12:54:57.517Z,26.73
2019-05-13T12:55:58.520Z,26.65
2019-05-13T12:56:57.012Z,27.47
2019-05-13T12:57:56.956Z,27.59
2019-05-13T12:58:56.914Z,28.70
2019-05-13T12:59:56.924Z,28.62
2019-05-13T13:00:57.005Z,29.01
2019-05-13T13:01:57.047Z,28.75
2019-05-13T13:02:56.894Z,28.95
2019-05-13T13:03:56.891Z,28.53
2019-05-13T13:05:10.850Z,26.64